Time;durP1;ratioP1;P1;durP2;ratioP2;P2;SDS_P1;SDS_P2;PMS_P1;PMS_P2;Temp;Humidity;BMP_temperature;BMP_pressure;BME280_temperature;BME280_humidity;BME280_pressure;Samples;Min_cycle;Max_cycle;Signal;HPM_P1;HPM_P2
2021/08/16 00:00:56;;;;;;;;;;;19.50;99.90;;;;;;1854925;76;20157;-72
2021/08/16 00:03:23;;;;;;;;;;;19.60;99.90;;;;;;1855450;77;20178;-71
2021/08/16 00:05:50;;;;;;;;;;;19.50;99.90;;;;;;1853012;76;20520;-71
2021/08/16 00:08:16;;;;;;;;;;;19.50;99.90;;;;;;1853718;76;20287;-71
2021/08/16 00:10:43;;;;;;;;;;;19.50;99.90;;;;;;1854446;76;20201;-71
2021/08/16 00:13:10;;;;;;;;;;;19.60;99.90;;;;;;1854352;76;20126;-71
2021/08/16 00:15:37;;;;;;;;;;;19.50;99.90;;;;;;1853991;76;20185;-71
2021/08/16 00:18:04;;;;;;;;;;;19.50;99.90;;;;;;1855449;76;20518;-71
2021/08/16 00:20:31;;;;;;;;;;;19.50;99.90;;;;;;1851559;76;20178;-71
2021/08/16 00:22:58;;;;;;;;;;;19.30;99.90;;;;;;1853375;76;20201;-71
2021/08/16 00:25:25;;;;;;;;;;;19.40;99.90;;;;;;1854010;76;20162;-71
2021/08/16 00:27:52;;;;;;;;;;;19.50;99.90;;;;;;1849461;76;20196;-71
2021/08/16 00:30:18;;;;;;;;;;;19.50;99.90;;;;;;1854446;76;20208;-71
2021/08/16 00:32:45;;;;;;;;;;;19.50;99.90;;;;;;1851657;76;20192;-71
2021/08/16 00:35:12;;;;;;;;;;;19.40;99.90;;;;;;1853838;76;20861;-71
2021/08/16 00:37:39;;;;;;;;;;;19.40;99.90;;;;;;1853278;76;20170;-71
2021/08/16 00:40:06;;;;;;;;;;;19.30;99.90;;;;;;1853606;76;20511;-71
2021/08/16 00:42:33;;;;;;;;;;;19.30;99.90;;;;;;1852436;76;20237;-72
2021/08/16 00:45:03;;;;;;;;;;;19.30;99.90;;;;;;1854005;76;20181;-71
2021/08/16 00:47:29;;;;;;;;;;;19.30;99.90;;;;;;1854598;76;20165;-71
2021/08/16 00:49:55;;;;;;;;;;;19.20;99.90;;;;;;1857384;76;20193;-71
2021/08/16 00:52:23;;;;;;;;;;;19.10;99.90;;;;;;1853773;76;20185;-71
2021/08/16 00:54:50;;;;;;;;;;;19.00;99.90;;;;;;1854321;76;20181;-71
2021/08/16 00:57:17;;;;;;;;;;;19.10;99.90;;;;;;1849222;76;20201;-71
2021/08/16 00:59:44;;;;;;;;;;;19.00;99.90;;;;;;1853787;76;20550;-72
2021/08/16 01:02:11;;;;;;;;;;;18.90;99.90;;;;;;1854101;76;20185;-71
2021/08/16 01:04:38;;;;;;;;;;;18.90;99.90;;;;;;1854015;76;20181;-71
2021/08/16 01:07:05;;;;;;;;;;;18.90;99.90;;;;;;1854994;76;20229;-71
2021/08/16 01:09:32;;;;;;;;;;;19.00;99.90;;;;;;1859408;76;20973;-71
2021/08/16 01:11:59;;;;;;;;;;;18.90;99.90;;;;;;1854755;76;20239;-71
2021/08/16 01:14:26;;;;;;;;;;;18.90;99.90;;;;;;1855005;77;20181;-71
2021/08/16 01:16:53;;;;;;;;;;;18.90;99.90;;;;;;1852174;76;20189;-71
2021/08/16 01:19:20;;;;;;;;;;;19.00;99.90;;;;;;1854219;77;20185;-71
2021/08/16 01:21:47;;;;;;;;;;;19.00;99.90;;;;;;1854942;76;20509;-71
2021/08/16 01:24:15;;;;;;;;;;;19.00;99.90;;;;;;1854650;76;20182;-71
2021/08/16 01:26:42;;;;;;;;;;;19.00;99.90;;;;;;1855159;76;20201;-71
2021/08/16 01:29:18;;;;;;;;;;;18.80;99.90;;;;;;1845270;76;20173;-71
2021/08/16 01:31:45;;;;;;;;;;;18.80;99.90;;;;;;1847606;76;20158;-71
2021/08/16 01:34:12;;;;;;;;;;;18.90;99.90;;;;;;1855322;76;20201;-71
2021/08/16 01:36:41;;;;;;;;;;;18.90;99.90;;;;;;1856959;76;20187;-71
2021/08/16 01:39:08;;;;;;;;;;;18.80;99.90;;;;;;1849064;76;20411;-71
2021/08/16 01:41:35;;;;;;;;;;;18.80;99.90;;;;;;1853084;76;20486;-71
2021/08/16 01:44:02;;;;;;;;;;;18.80;99.90;;;;;;1853706;76;20518;-71
2021/08/16 01:46:29;;;;;;;;;;;18.70;99.90;;;;;;1854406;76;20118;-71
2021/08/16 01:48:56;;;;;;;;;;;18.80;99.90;;;;;;1854561;76;20122;-71
2021/08/16 01:51:23;;;;;;;;;;;18.80;99.90;;;;;;1855799;76;20472;-71
2021/08/16 01:53:50;;;;;;;;;;;18.80;99.90;;;;;;1853539;76;20256;-71
2021/08/16 01:56:18;;;;;;;;;;;18.60;99.90;;;;;;1855474;76;20521;-71
2021/08/16 01:58:45;;;;;;;;;;;18.60;99.90;;;;;;1852843;76;20248;-71
2021/08/16 02:01:11;;;;;;;;;;;18.40;99.90;;;;;;1852948;76;20511;-71
2021/08/16 02:03:38;;;;;;;;;;;18.50;99.90;;;;;;1848124;76;20170;-71
2021/08/16 02:06:05;;;;;;;;;;;18.50;99.90;;;;;;1850749;76;20471;-71
2021/08/16 02:08:32;;;;;;;;;;;18.40;99.90;;;;;;1850451;76;20166;-71
2021/08/16 02:10:59;;;;;;;;;;;18.30;99.90;;;;;;1848245;76;20186;-71
2021/08/16 02:13:25;;;;;;;;;;;18.40;99.90;;;;;;1851792;77;20245;-71
2021/08/16 02:15:52;;;;;;;;;;;18.40;99.90;;;;;;1852339;76;20189;-71
2021/08/16 02:18:19;;;;;;;;;;;18.30;99.90;;;;;;1845081;76;20193;-71
2021/08/16 02:20:46;;;;;;;;;;;18.30;99.90;;;;;;1853849;76;20165;-71
2021/08/16 02:23:13;;;;;;;;;;;18.20;99.90;;;;;;1852524;76;20185;-71
2021/08/16 02:25:39;;;;;;;;;;;18.30;99.90;;;;;;1854246;76;20200;-71
2021/08/16 02:28:06;;;;;;;;;;;18.40;99.90;;;;;;1853464;76;20189;-71
2021/08/16 02:30:33;;;;;;;;;;;18.30;99.90;;;;;;1859055;76;20181;-71
2021/08/16 02:33:00;;;;;;;;;;;18.20;99.90;;;;;;1856032;77;20185;-71
2021/08/16 02:35:27;;;;;;;;;;;18.20;99.90;;;;;;1855004;76;20299;-71
2021/08/16 02:37:53;;;;;;;;;;;18.10;99.90;;;;;;1854499;76;20223;-70
2021/08/16 02:40:20;;;;;;;;;;;18.10;99.90;;;;;;1834623;76;20163;-71
2021/08/16 02:42:47;;;;;;;;;;;17.90;99.90;;;;;;1847440;76;20317;-71
2021/08/16 02:45:14;;;;;;;;;;;17.90;99.90;;;;;;1853054;76;20162;-71
2021/08/16 02:47:41;;;;;;;;;;;18.00;99.90;;;;;;1853446;77;20107;-71
2021/08/16 02:50:08;;;;;;;;;;;18.00;99.90;;;;;;1869381;76;20204;-71
2021/08/16 02:52:34;;;;;;;;;;;18.10;99.90;;;;;;1857926;77;20216;-71
2021/08/16 02:55:02;;;;;;;;;;;18.20;99.90;;;;;;1852765;76;20200;-71
2021/08/16 02:57:28;;;;;;;;;;;18.10;99.90;;;;;;1915651;73;20207;-72
2021/08/16 02:59:55;;;;;;;;;;;18.20;99.90;;;;;;1927153;74;20399;-72
2021/08/16 03:02:22;;;;;;;;;;;18.10;99.90;;;;;;1907757;74;20181;-72
2021/08/16 03:04:49;;;;;;;;;;;18.10;99.90;;;;;;1911631;74;20182;-73
2021/08/16 03:07:17;;;;;;;;;;;18.00;99.90;;;;;;1886611;76;20485;-72
2021/08/16 03:09:43;;;;;;;;;;;18.00;99.90;;;;;;1877913;76;20131;-72
2021/08/16 03:12:10;;;;;;;;;;;18.00;99.90;;;;;;1877650;76;20511;-73
2021/08/16 03:14:37;;;;;;;;;;;18.00;99.90;;;;;;1921117;75;20154;-73
2021/08/16 03:17:05;;;;;;;;;;;17.90;99.90;;;;;;1919628;75;20215;-73
2021/08/16 03:19:32;;;;;;;;;;;18.00;99.90;;;;;;1919271;75;20188;-73
2021/08/16 03:21:59;;;;;;;;;;;17.80;99.90;;;;;;1920527;75;20180;-73
2021/08/16 03:24:26;;;;;;;;;;;17.80;99.90;;;;;;1919504;75;20286;-73
2021/08/16 03:26:53;;;;;;;;;;;17.90;99.90;;;;;;1915499;75;20222;-72
2021/08/16 03:29:20;;;;;;;;;;;18.00;99.90;;;;;;1891273;75;20167;-72
2021/08/16 03:31:46;;;;;;;;;;;17.90;99.90;;;;;;1911579;75;20157;-72
2021/08/16 03:34:13;;;;;;;;;;;18.00;99.90;;;;;;1920530;75;20215;-72
2021/08/16 03:36:40;;;;;;;;;;;17.90;99.90;;;;;;1920255;75;20168;-72
2021/08/16 03:39:07;;;;;;;;;;;17.90;99.90;;;;;;1919411;75;20375;-72
2021/08/16 03:41:34;;;;;;;;;;;17.90;99.90;;;;;;1920549;75;20214;-73
2021/08/16 03:44:01;;;;;;;;;;;17.80;99.90;;;;;;1919679;75;20242;-72
2021/08/16 03:46:28;;;;;;;;;;;17.90;99.90;;;;;;1915005;74;20237;-72
2021/08/16 03:48:54;;;;;;;;;;;17.90;99.90;;;;;;1920117;75;20157;-73
2021/08/16 03:51:22;;;;;;;;;;;17.90;99.90;;;;;;1918863;75;20126;-72
2021/08/16 03:53:49;;;;;;;;;;;17.90;99.90;;;;;;1920163;75;20185;-72
2021/08/16 03:56:15;;;;;;;;;;;17.90;99.90;;;;;;1920015;75;20371;-72
2021/08/16 03:58:42;;;;;;;;;;;17.90;99.90;;;;;;1919355;75;20263;-72
2021/08/16 04:01:10;;;;;;;;;;;17.90;99.90;;;;;;1920371;73;20162;-73
2021/08/16 04:03:39;;;;;;;;;;;17.80;99.90;;;;;;1913322;75;20160;-72
2021/08/16 04:06:05;;;;;;;;;;;17.80;99.90;;;;;;1920313;75;20266;-72
2021/08/16 04:08:33;;;;;;;;;;;17.80;99.90;;;;;;1919588;75;20121;-72
2021/08/16 04:11:00;;;;;;;;;;;17.80;99.90;;;;;;1920803;73;20126;-71
2021/08/16 04:13:27;;;;;;;;;;;17.90;99.90;;;;;;1920698;75;20254;-72
2021/08/16 04:15:54;;;;;;;;;;;17.90;99.90;;;;;;1920563;74;20375;-72
2021/08/16 04:18:20;;;;;;;;;;;17.80;99.90;;;;;;1917177;75;20347;-72
2021/08/16 04:20:47;;;;;;;;;;;17.80;99.90;;;;;;1916659;75;20500;-72
2021/08/16 04:23:14;;;;;;;;;;;17.80;99.90;;;;;;1919318;75;20157;-72
2021/08/16 04:25:41;;;;;;;;;;;17.90;99.90;;;;;;1919632;75;20185;-72
2021/08/16 04:28:08;;;;;;;;;;;17.90;99.90;;;;;;1918977;75;20177;-72
2021/08/16 04:30:34;;;;;;;;;;;18.00;99.90;;;;;;1914114;75;20109;-71
2021/08/16 04:33:01;;;;;;;;;;;17.90;99.90;;;;;;1919767;75;20189;-72
2021/08/16 04:35:28;;;;;;;;;;;17.90;99.90;;;;;;1918859;75;20274;-72
2021/08/16 04:37:55;;;;;;;;;;;18.00;99.90;;;;;;1919770;75;20364;-72
2021/08/16 04:40:22;;;;;;;;;;;17.80;99.90;;;;;;1919109;75;20228;-72
2021/08/16 04:42:48;;;;;;;;;;;17.80;99.90;;;;;;1919463;75;20176;-72
2021/08/16 04:45:15;;;;;;;;;;;17.80;99.90;;;;;;1918468;75;20180;-72
2021/08/16 04:47:43;;;;;;;;;;;17.80;99.90;;;;;;1894105;75;20279;-72
2021/08/16 04:50:10;;;;;;;;;;;17.90;99.90;;;;;;1906702;75;20125;-72
2021/08/16 04:52:37;;;;;;;;;;;17.90;99.90;;;;;;1921576;75;20105;-72
2021/08/16 04:55:04;;;;;;;;;;;17.90;99.90;;;;;;1910613;75;20388;-72
2021/08/16 04:57:31;;;;;;;;;;;18.00;99.90;;;;;;1921082;75;20183;-72
2021/08/16 04:59:58;;;;;;;;;;;17.90;99.90;;;;;;1919344;75;20943;-72
2021/08/16 05:02:25;;;;;;;;;;;18.00;99.90;;;;;;1916838;73;20141;-72
2021/08/16 05:04:58;;;;;;;;;;;17.90;99.90;;;;;;1921119;74;20197;-72
2021/08/16 05:07:23;;;;;;;;;;;17.80;99.90;;;;;;1919323;74;20419;-72
2021/08/16 05:09:51;;;;;;;;;;;17.80;99.90;;;;;;1920714;75;20144;-72
2021/08/16 05:12:18;;;;;;;;;;;17.80;99.90;;;;;;1879534;76;20150;-72
2021/08/16 05:14:44;;;;;;;;;;;17.80;99.90;;;;;;1872167;76;20193;-72
2021/08/16 05:17:11;;;;;;;;;;;17.90;99.90;;;;;;1877331;76;20128;-73
2021/08/16 05:19:39;;;;;;;;;;;17.90;99.90;;;;;;1878722;76;20124;-71
2021/08/16 05:22:06;;;;;;;;;;;17.90;99.90;;;;;;1876938;76;20125;-71
2021/08/16 05:24:33;;;;;;;;;;;17.80;99.90;;;;;;1877482;76;20202;-71
2021/08/16 05:27:00;;;;;;;;;;;17.70;99.90;;;;;;1877821;76;20148;-71
2021/08/16 05:29:27;;;;;;;;;;;17.70;99.90;;;;;;1870728;76;20183;-71
2021/08/16 05:31:54;;;;;;;;;;;17.80;99.90;;;;;;1876705;76;20172;-71
2021/08/16 05:34:21;;;;;;;;;;;17.90;99.90;;;;;;1866325;76;20904;-71
2021/08/16 05:36:48;;;;;;;;;;;17.90;99.90;;;;;;1869681;76;20180;-72
2021/08/16 05:39:15;;;;;;;;;;;17.80;99.90;;;;;;1871662;76;20393;-71
2021/08/16 05:41:42;;;;;;;;;;;17.80;99.90;;;;;;1906314;75;20422;-71
2021/08/16 05:44:09;;;;;;;;;;;17.80;99.90;;;;;;1888743;75;20201;-71
2021/08/16 05:46:35;;;;;;;;;;;17.90;99.90;;;;;;1904645;75;20628;-70
2021/08/16 05:49:02;;;;;;;;;;;17.70;99.90;;;;;;1917869;75;20245;-71
2021/08/16 05:51:29;;;;;;;;;;;17.70;99.90;;;;;;1913129;75;20450;-69
2021/08/16 05:53:56;;;;;;;;;;;17.70;99.90;;;;;;1915479;75;20180;-70
2021/08/16 05:56:23;;;;;;;;;;;17.90;99.90;;;;;;1917593;73;20214;-71
2021/08/16 05:58:49;;;;;;;;;;;17.90;99.90;;;;;;1916575;75;20199;-70
2021/08/16 06:01:16;;;;;;;;;;;18.00;99.90;;;;;;1900960;75;20175;-73
2021/08/16 06:03:43;;;;;;;;;;;18.00;99.90;;;;;;1900999;75;20182;-73
2021/08/16 06:06:10;;;;;;;;;;;18.00;99.90;;;;;;1920041;73;20152;-73
2021/08/16 06:08:37;;;;;;;;;;;17.90;99.90;;;;;;1921320;75;20176;-73
2021/08/16 06:11:03;;;;;;;;;;;17.90;99.90;;;;;;1919080;75;20156;-73
2021/08/16 06:13:31;;;;;;;;;;;17.90;99.90;;;;;;1917942;75;20506;-73
2021/08/16 06:15:58;;;;;;;;;;;17.90;99.90;;;;;;1919566;73;20455;-73
2021/08/16 06:18:25;;;;;;;;;;;17.80;99.90;;;;;;1919690;75;20456;-73
2021/08/16 06:20:54;;;;;;;;;;;17.90;99.90;;;;;;1906647;75;20505;-72
2021/08/16 06:23:21;;;;;;;;;;;18.00;99.90;;;;;;1917384;75;20177;-73
2021/08/16 06:25:48;;;;;;;;;;;18.00;99.90;;;;;;1908596;74;20548;-74
2021/08/16 06:28:14;;;;;;;;;;;17.90;99.90;;;;;;1912205;75;20174;-74
2021/08/16 06:30:41;;;;;;;;;;;17.90;99.90;;;;;;1909840;75;20517;-74
2021/08/16 06:33:08;;;;;;;;;;;17.90;99.90;;;;;;1912975;75;20448;-74
2021/08/16 06:35:36;;;;;;;;;;;18.00;99.90;;;;;;1906973;75;20171;-72
2021/08/16 06:38:09;;;;;;;;;;;17.90;99.90;;;;;;1911999;75;20169;-72
2021/08/16 06:40:32;;;;;;;;;;;18.00;99.90;;;;;;1910849;75;20289;-72
2021/08/16 06:42:58;;;;;;;;;;;17.90;99.90;;;;;;1884702;76;20174;-72
2021/08/16 06:45:25;;;;;;;;;;;18.00;99.90;;;;;;1879892;74;20271;-73
2021/08/16 06:47:52;;;;;;;;;;;17.90;99.90;;;;;;1858018;76;20249;-72
2021/08/16 06:50:19;;;;;;;;;;;17.90;99.90;;;;;;1883487;75;20245;-73
2021/08/16 06:52:45;;;;;;;;;;;18.10;99.90;;;;;;1890181;74;20266;-73
2021/08/16 06:55:12;;;;;;;;;;;18.00;99.90;;;;;;1886329;74;20242;-73
2021/08/16 06:57:39;;;;;;;;;;;18.00;99.90;;;;;;1883983;75;20265;-73
2021/08/16 07:00:06;;;;;;;;;;;18.00;99.90;;;;;;1886651;75;20178;-73
2021/08/16 07:02:33;;;;;;;;;;;18.00;99.90;;;;;;1877787;74;20246;-72
2021/08/16 07:05:00;;;;;;;;;;;18.10;99.90;;;;;;1870692;76;20173;-72
2021/08/16 07:07:27;;;;;;;;;;;18.10;99.90;;;;;;1867904;75;20267;-72
2021/08/16 07:09:53;;;;;;;;;;;18.10;99.90;;;;;;1865167;76;20208;-72
2021/08/16 07:12:20;;;;;;;;;;;18.10;99.90;;;;;;1868293;76;20180;-72
2021/08/16 07:14:47;;;;;;;;;;;18.10;99.90;;;;;;1867256;76;20199;-72
2021/08/16 07:17:14;;;;;;;;;;;18.10;99.90;;;;;;1863925;76;20215;-72
2021/08/16 07:19:41;;;;;;;;;;;18.20;99.90;;;;;;1869007;76;20242;-72
2021/08/16 07:22:08;;;;;;;;;;;18.20;99.90;;;;;;1864597;76;20191;-72
2021/08/16 07:24:35;;;;;;;;;;;18.10;99.90;;;;;;1868627;76;20183;-72
2021/08/16 07:27:01;;;;;;;;;;;18.20;99.90;;;;;;1867906;76;20281;-72
2021/08/16 07:29:30;;;;;;;;;;;18.30;99.90;;;;;;1868965;76;20245;-74
2021/08/16 07:31:59;;;;;;;;;;;18.30;99.90;;;;;;1864959;76;20181;-71
2021/08/16 07:34:26;;;;;;;;;;;18.20;99.90;;;;;;1914477;75;20220;-71
2021/08/16 07:36:54;;;;;;;;;;;18.20;99.90;;;;;;1912034;75;20160;-71
2021/08/16 07:39:21;;;;;;;;;;;18.20;99.90;;;;;;1910600;75;20174;-71
2021/08/16 07:41:48;;;;;;;;;;;18.20;99.90;;;;;;1910890;75;20512;-72
2021/08/16 07:44:15;;;;;;;;;;;18.30;99.90;;;;;;1909520;75;20200;-72
2021/08/16 07:46:42;;;;;;;;;;;18.30;99.90;;;;;;1912594;75;20223;-72
2021/08/16 07:49:09;;;;;;;;;;;18.10;99.90;;;;;;1913290;75;20127;-73
2021/08/16 07:51:36;;;;;;;;;;;18.20;99.90;;;;;;1914445;75;20232;-72
2021/08/16 07:54:03;;;;;;;;;;;18.20;99.90;;;;;;1908699;75;20229;-73
2021/08/16 07:56:29;;;;;;;;;;;18.30;99.90;;;;;;1908834;74;20272;-73
2021/08/16 07:58:56;;;;;;;;;;;18.30;99.90;;;;;;1908972;75;20227;-72
2021/08/16 08:01:24;;;;;;;;;;;18.20;99.90;;;;;;1915618;75;20176;-72
2021/08/16 08:03:50;;;;;;;;;;;18.30;99.90;;;;;;1911883;73;20177;-72
2021/08/16 08:06:18;;;;;;;;;;;18.20;99.90;;;;;;1910421;73;20185;-72
2021/08/16 08:08:45;;;;;;;;;;;18.20;99.90;;;;;;1914308;75;20175;-72
2021/08/16 08:11:12;;;;;;;;;;;18.10;99.90;;;;;;1911942;75;20243;-72
2021/08/16 08:13:39;;;;;;;;;;;18.00;99.90;;;;;;1909134;73;20484;-72
2021/08/16 08:16:05;;;;;;;;;;;17.90;99.90;;;;;;1912907;75;20401;-72
2021/08/16 08:18:32;;;;;;;;;;;17.90;99.90;;;;;;1915024;75;20146;-72
2021/08/16 08:20:59;;;;;;;;;;;17.90;99.90;;;;;;1911279;75;20181;-72
2021/08/16 08:23:26;;;;;;;;;;;18.00;99.90;;;;;;1911763;75;20247;-72
2021/08/16 08:25:53;;;;;;;;;;;18.00;99.90;;;;;;1913342;75;20181;-71
2021/08/16 08:28:19;;;;;;;;;;;18.00;99.90;;;;;;1911617;75;20225;-72
2021/08/16 08:30:46;;;;;;;;;;;18.00;99.90;;;;;;1908964;75;20248;-72
2021/08/16 08:33:15;;;;;;;;;;;17.80;99.90;;;;;;1910663;75;20279;-71
2021/08/16 08:35:46;;;;;;;;;;;17.80;99.90;;;;;;1910023;73;20173;-71
2021/08/16 08:38:13;;;;;;;;;;;17.80;99.90;;;;;;1907217;75;20167;-72
2021/08/16 08:40:40;;;;;;;;;;;17.70;99.90;;;;;;1908357;73;20310;-70
2021/08/16 08:43:11;;;;;;;;;;;17.60;99.90;;;;;;1906390;75;20203;-71
2021/08/16 08:45:39;;;;;;;;;;;17.50;99.90;;;;;;1909807;75;20235;-70
2021/08/16 08:48:06;;;;;;;;;;;17.60;99.90;;;;;;1904896;73;20265;-71
2021/08/16 08:50:33;;;;;;;;;;;17.60;99.90;;;;;;1910501;75;20260;-70
2021/08/16 08:53:01;;;;;;;;;;;17.60;99.90;;;;;;1910168;75;20851;-70
2021/08/16 08:55:28;;;;;;;;;;;17.60;99.90;;;;;;1908484;75;20621;-70
2021/08/16 08:57:55;;;;;;;;;;;17.60;99.90;;;;;;1909041;75;20223;-72
2021/08/16 09:00:22;;;;;;;;;;;17.50;99.90;;;;;;1911229;73;20189;-70
2021/08/16 09:02:58;;;;;;;;;;;17.40;99.90;;;;;;1910066;73;20767;-73
2021/08/16 09:05:25;;;;;;;;;;;17.50;99.90;;;;;;1896385;74;20249;-72
2021/08/16 09:07:58;;;;;;;;;;;17.40;99.90;;;;;;1895669;74;20276;-72
2021/08/16 09:10:22;;;;;;;;;;;17.40;99.90;;;;;;1891118;74;20123;-73
2021/08/16 09:12:49;;;;;;;;;;;17.30;99.90;;;;;;1883234;74;21000;-73
2021/08/16 09:15:17;;;;;;;;;;;17.40;99.90;;;;;;1866342;75;20126;-72
2021/08/16 09:17:45;;;;;;;;;;;17.40;99.90;;;;;;1865614;75;20236;-71
2021/08/16 09:20:16;;;;;;;;;;;17.20;99.90;;;;;;1863497;75;20546;-73
2021/08/16 09:22:42;;;;;;;;;;;17.30;99.90;;;;;;1859634;75;20217;-72
2021/08/16 09:25:11;;;;;;;;;;;17.20;99.90;;;;;;1828787;77;20120;-72
2021/08/16 09:27:45;;;;;;;;;;;17.30;99.90;;;;;;1824639;77;20211;-72
2021/08/16 09:30:13;;;;;;;;;;;17.30;99.90;;;;;;1825706;77;20243;-73
2021/08/16 09:32:40;;;;;;;;;;;17.30;99.90;;;;;;1820703;77;20230;-72
2021/08/16 09:35:09;;;;;;;;;;;17.30;99.90;;;;;;1787206;79;20240;-72
2021/08/16 09:37:36;;;;;;;;;;;17.30;99.90;;;;;;1818934;77;20220;-72
2021/08/16 09:40:04;;;;;;;;;;;17.40;99.90;;;;;;1816023;77;20195;-72
2021/08/16 09:42:41;;;;;;;;;;;17.30;99.90;;;;;;1839157;75;20255;-73
2021/08/16 09:45:08;;;;;;;;;;;17.30;99.90;;;;;;1799631;78;20225;-73
2021/08/16 09:47:45;;;;;;;;;;;17.30;99.90;;;;;;1837507;76;20209;-73
2021/08/16 09:50:12;;;;;;;;;;;17.40;99.90;;;;;;1834000;77;20161;-72
2021/08/16 09:52:40;;;;;;;;;;;17.30;99.90;;;;;;1821601;77;20286;-74
2021/08/16 09:55:07;;;;;;;;;;;17.30;99.90;;;;;;1822550;77;20378;-74
2021/08/16 09:57:34;;;;;;;;;;;17.20;99.90;;;;;;1821469;77;20311;-73
2021/08/16 10:00:01;;;;;;;;;;;17.20;99.90;;;;;;1821533;77;20243;-73
2021/08/16 10:02:28;;;;;;;;;;;17.20;99.90;;;;;;1820671;77;20567;-73
2021/08/16 10:04:56;;;;;;;;;;;17.10;99.90;;;;;;1820597;77;20227;-74
2021/08/16 10:07:25;;;;;;;;;;;17.10;99.90;;;;;;1820772;77;20241;-72
2021/08/16 10:09:51;;;;;;;;;;;17.10;99.90;;;;;;1821672;77;20509;-71
2021/08/16 10:12:18;;;;;;;;;;;17.10;99.90;;;;;;1814265;77;20257;-72
2021/08/16 10:14:46;;;;;;;;;;;16.90;99.90;;;;;;1831488;77;20219;-73
2021/08/16 10:17:13;;;;;;;;;;;17.00;99.90;;;;;;1826117;77;20356;-74
2021/08/16 10:19:41;;;;;;;;;;;17.00;99.90;;;;;;1822193;77;20408;-73
2021/08/16 10:22:09;;;;;;;;;;;17.00;99.90;;;;;;1790848;78;20249;-74
2021/08/16 10:24:36;;;;;;;;;;;16.80;99.90;;;;;;1820623;77;20653;-73
2021/08/16 10:27:04;;;;;;;;;;;16.80;99.90;;;;;;1822189;77;20699;-73
2021/08/16 10:29:32;;;;;;;;;;;16.90;99.90;;;;;;1820412;77;20212;-72
2021/08/16 10:32:00;;;;;;;;;;;17.00;99.90;;;;;;1821755;77;20176;-71
2021/08/16 10:34:28;;;;;;;;;;;17.10;99.90;;;;;;1820538;77;21178;-72
2021/08/16 10:36:59;;;;;;;;;;;16.80;99.90;;;;;;1819426;77;20211;-72
2021/08/16 10:39:33;;;;;;;;;;;16.80;99.90;;;;;;1830989;77;20204;-73
2021/08/16 10:42:08;;;;;;;;;;;16.80;99.90;;;;;;1832445;75;20266;-70
2021/08/16 10:44:45;;;;;;;;;;;16.90;99.90;;;;;;1822421;77;20263;-72
2021/08/16 10:47:13;;;;;;;;;;;16.80;99.90;;;;;;1827555;77;20230;-73
2021/08/16 10:49:41;;;;;;;;;;;16.80;99.90;;;;;;1820595;77;20125;-73
2021/08/16 10:52:09;;;;;;;;;;;16.80;99.90;;;;;;1820679;77;20231;-74
2021/08/16 10:54:36;;;;;;;;;;;16.80;99.90;;;;;;1818427;77;20215;-74
2021/08/16 10:57:03;;;;;;;;;;;16.80;99.90;;;;;;1795596;78;20154;-71
2021/08/16 10:59:31;;;;;;;;;;;16.90;99.90;;;;;;1824183;77;20254;-74
2021/08/16 11:01:58;;;;;;;;;;;16.90;99.90;;;;;;1791559;78;20569;-72
2021/08/16 11:04:29;;;;;;;;;;;16.90;99.90;;;;;;1823014;77;20806;-72
2021/08/16 11:06:59;;;;;;;;;;;16.90;99.90;;;;;;1791242;78;20253;-72
2021/08/16 11:09:26;;;;;;;;;;;17.00;99.90;;;;;;1815607;77;20763;-72
2021/08/16 11:11:54;;;;;;;;;;;17.00;99.90;;;;;;1821558;77;20242;-72
2021/08/16 11:14:25;;;;;;;;;;;16.90;99.90;;;;;;1821428;77;20650;-72
2021/08/16 11:16:52;;;;;;;;;;;17.00;99.90;;;;;;1816339;77;20240;-72
2021/08/16 11:19:19;;;;;;;;;;;17.10;99.90;;;;;;1835152;77;20277;-72
2021/08/16 11:21:47;;;;;;;;;;;17.10;99.90;;;;;;1834715;77;20523;-72
2021/08/16 11:24:14;;;;;;;;;;;17.10;99.90;;;;;;1831437;77;20224;-71
2021/08/16 11:26:43;;;;;;;;;;;17.10;99.90;;;;;;1823265;77;20508;-72
2021/08/16 11:29:09;;;;;;;;;;;17.20;99.90;;;;;;1820651;77;20194;-72
2021/08/16 11:31:36;;;;;;;;;;;17.10;99.90;;;;;;1821783;77;20164;-72
2021/08/16 11:34:04;;;;;;;;;;;17.10;99.90;;;;;;1823249;77;20235;-71
2021/08/16 11:36:34;;;;;;;;;;;16.80;99.90;;;;;;1824669;77;20234;-71
2021/08/16 11:39:01;;;;;;;;;;;16.90;99.90;;;;;;1823809;77;20235;-72
2021/08/16 11:41:32;;;;;;;;;;;16.80;99.90;;;;;;1834203;77;20244;-73
2021/08/16 11:44:00;;;;;;;;;;;16.70;99.90;;;;;;1823399;77;20523;-73
2021/08/16 11:46:28;;;;;;;;;;;16.80;99.90;;;;;;1819410;77;20286;-72
2021/08/16 11:48:55;;;;;;;;;;;16.70;99.90;;;;;;1821549;77;20498;-73
2021/08/16 11:51:22;;;;;;;;;;;16.60;99.90;;;;;;1821031;77;20281;-74
2021/08/16 11:53:49;;;;;;;;;;;16.60;99.90;;;;;;1821243;77;20286;-73
2021/08/16 11:56:16;;;;;;;;;;;16.60;99.90;;;;;;1822217;77;20231;-74
2021/08/16 11:58:44;;;;;;;;;;;16.60;99.90;;;;;;1826174;77;20125;-73
2021/08/16 12:01:11;;;;;;;;;;;16.60;99.90;;;;;;1823461;77;20256;-72
2021/08/16 12:03:39;;;;;;;;;;;16.30;99.90;;;;;;1821920;77;20222;-73
2021/08/16 12:06:07;;;;;;;;;;;16.40;99.90;;;;;;1821909;77;20273;-73
2021/08/16 12:08:34;;;;;;;;;;;16.40;99.90;;;;;;1821769;77;21143;-73
2021/08/16 12:11:01;;;;;;;;;;;16.40;99.90;;;;;;1835505;77;20466;-73
2021/08/16 12:13:27;;;;;;;;;;;16.40;99.90;;;;;;1829615;77;20249;-73
2021/08/16 12:15:54;;;;;;;;;;;16.30;99.90;;;;;;1822254;77;20486;-73
2021/08/16 12:18:29;;;;;;;;;;;16.30;99.90;;;;;;1835110;77;20251;-73
2021/08/16 12:20:57;;;;;;;;;;;16.30;99.90;;;;;;1786693;79;20298;-73
2021/08/16 12:23:27;;;;;;;;;;;16.40;99.90;;;;;;1821440;77;20258;-73
2021/08/16 12:25:54;;;;;;;;;;;16.60;99.90;;;;;;1815767;77;20741;-73
2021/08/16 12:28:21;;;;;;;;;;;16.50;99.90;;;;;;1857959;75;20276;-73
2021/08/16 12:30:48;;;;;;;;;;;16.60;99.90;;;;;;1858975;75;20237;-73
2021/08/16 12:33:16;;;;;;;;;;;16.50;99.90;;;;;;1858505;75;20227;-73
2021/08/16 12:35:44;;;;;;;;;;;16.50;99.90;;;;;;1821285;77;20255;-73
2021/08/16 12:38:11;;;;;;;;;;;16.60;99.90;;;;;;1820022;77;20251;-76
2021/08/16 12:40:38;;;;;;;;;;;16.50;99.90;;;;;;1821496;77;20176;-74
2021/08/16 12:43:05;;;;;;;;;;;16.60;99.90;;;;;;1822542;77;20187;-75
2021/08/16 12:45:33;;;;;;;;;;;16.70;99.90;;;;;;1821743;77;20128;-75
2021/08/16 12:48:01;;;;;;;;;;;16.70;99.90;;;;;;1839557;77;20299;-72
2021/08/16 12:50:28;;;;;;;;;;;16.60;99.90;;;;;;1849702;77;20219;-73
2021/08/16 12:52:55;;;;;;;;;;;16.70;99.90;;;;;;1836170;77;20219;-74
2021/08/16 12:55:22;;;;;;;;;;;16.80;99.90;;;;;;1825980;77;20299;-73
2021/08/16 12:57:49;;;;;;;;;;;16.80;99.90;;;;;;1842881;77;20304;-73
2021/08/16 13:00:16;;;;;;;;;;;16.70;99.90;;;;;;1842892;77;20184;-73
2021/08/16 13:02:44;;;;;;;;;;;16.70;99.90;;;;;;1843323;75;20207;-73
2021/08/16 13:05:11;;;;;;;;;;;16.70;99.90;;;;;;1845415;77;20473;-72
2021/08/16 13:07:38;;;;;;;;;;;16.70;99.90;;;;;;1843455;77;20327;-72
2021/08/16 13:10:05;;;;;;;;;;;16.70;99.90;;;;;;1833149;77;20665;-73
2021/08/16 13:12:32;;;;;;;;;;;16.70;99.90;;;;;;1825063;77;20582;-72
2021/08/16 13:14:59;;;;;;;;;;;16.80;99.90;;;;;;1828858;77;20555;-73
2021/08/16 13:17:26;;;;;;;;;;;16.70;99.90;;;;;;1828099;77;20201;-73
2021/08/16 13:19:53;;;;;;;;;;;16.70;99.90;;;;;;1825122;77;20160;-73
2021/08/16 13:22:20;;;;;;;;;;;16.70;99.90;;;;;;1838451;76;20228;-73
2021/08/16 13:24:47;;;;;;;;;;;16.60;99.90;;;;;;1837958;77;20117;-73
2021/08/16 13:27:14;;;;;;;;;;;16.60;99.90;;;;;;1829661;77;20798;-73
2021/08/16 13:29:41;;;;;;;;;;;16.60;99.90;;;;;;1827242;77;20445;-73
2021/08/16 13:32:09;;;;;;;;;;;16.60;99.90;;;;;;1829577;77;20515;-73
2021/08/16 13:34:36;;;;;;;;;;;16.60;99.90;;;;;;1833341;77;20176;-73
2021/08/16 13:37:05;;;;;;;;;;;16.60;99.90;;;;;;1833923;77;20481;-73
2021/08/16 13:39:32;;;;;;;;;;;16.60;99.90;;;;;;1823399;77;20258;-73
2021/08/16 13:41:58;;;;;;;;;;;16.60;99.90;;;;;;1823889;77;20590;-73
2021/08/16 13:44:25;;;;;;;;;;;16.60;99.90;;;;;;1824588;77;20192;-73
2021/08/16 13:46:52;;;;;;;;;;;16.50;99.90;;;;;;1826747;77;20497;-74
2021/08/16 13:49:19;;;;;;;;;;;16.60;99.90;;;;;;1822856;77;20223;-75
2021/08/16 13:51:45;;;;;;;;;;;16.60;99.90;;;;;;1827903;77;20218;-74
2021/08/16 13:54:12;;;;;;;;;;;16.60;99.90;;;;;;1833554;77;20209;-72
2021/08/16 13:56:39;;;;;;;;;;;16.70;99.90;;;;;;1827749;77;20238;-71
2021/08/16 13:59:06;;;;;;;;;;;16.70;99.90;;;;;;1830724;77;20469;-71
2021/08/16 14:01:34;;;;;;;;;;;16.60;99.90;;;;;;1839497;77;20250;-71
2021/08/16 14:04:01;;;;;;;;;;;16.60;99.90;;;;;;1839500;75;20844;-74
2021/08/16 14:06:28;;;;;;;;;;;16.50;99.90;;;;;;1834047;77;20259;-74
2021/08/16 14:08:55;;;;;;;;;;;16.50;99.90;;;;;;1829697;77;20182;-75
2021/08/16 14:11:22;;;;;;;;;;;16.50;99.90;;;;;;1830614;77;20254;-72
2021/08/16 14:13:48;;;;;;;;;;;16.50;99.90;;;;;;1829755;77;20217;-74
2021/08/16 14:16:15;;;;;;;;;;;16.50;99.90;;;;;;1825180;77;20174;-79